AMU667 RCKH-VMMC
Flight info
| Callsign | AMU667 |
|---|---|
| Flight time | 0h 46m |
| Altitude | 320000 |
| Route | PARPA |
| Aircraft | A319/M-VGDW/C |
Departure
| Time | 2026-04-16 12:50 |
|---|---|
| Airport | Kaohsiung International Airport (RCKH) |
Arrival
| Time | 2026-04-16 13:36 |
|---|---|
| Airport | Macau International Airport (VMMC) |
| Time | Latitude | Longitude | Altitude | Speed | Heading |
|---|---|---|---|---|---|
| 2026-04-16 12:44 | 22.57301 | 120.34051 | 36 ft | 0 kts | 2° |
| 2026-04-16 12:46 | 22.57317 | 120.34052 | 34 ft | 4 kts | 4° |
| 2026-04-16 12:47 | 22.57353 | 120.34055 | 38 ft | 7 kts | 4° |
| 2026-04-16 12:47 | 22.57402 | 120.34039 | 38 ft | 9 kts | 311° |
| 2026-04-16 12:47 | 22.57412 | 120.33965 | 38 ft | 11 kts | 272° |
| 2026-04-16 12:47 | 22.57415 | 120.33870 | 38 ft | 14 kts | 272° |
| 2026-04-16 12:48 | 22.57419 | 120.33753 | 38 ft | 17 kts | 272° |
| 2026-04-16 12:48 | 22.57474 | 120.33642 | 38 ft | 19 kts | 318° |
| 2026-04-16 12:48 | 22.57573 | 120.33545 | 38 ft | 20 kts | 317° |
| 2026-04-16 12:48 | 22.57667 | 120.33503 | 38 ft | 15 kts | 3° |
| 2026-04-16 12:49 | 22.57753 | 120.33529 | 38 ft | 9 kts | 83° |
| 2026-04-16 12:49 | 22.57752 | 120.33559 | 38 ft | 6 kts | 91° |
| 2026-04-16 12:49 | 22.57743 | 120.33832 | 39 ft | 73 kts | 92° |
| 2026-04-16 12:49 | 22.57721 | 120.34630 | 39 ft | 141 kts | 92° |
| 2026-04-16 12:50 | 22.57709 | 120.35893 | 246 ft | 180 kts | 87° |
| 2026-04-16 12:50 | 22.57685 | 120.37239 | 1083 ft | 180 kts | 94° |
| 2026-04-16 12:50 | 22.57100 | 120.38463 | 1759 ft | 193 kts | 138° |
| 2026-04-16 12:50 | 22.55795 | 120.39028 | 2033 ft | 220 kts | 179° |
| 2026-04-16 12:51 | 22.54253 | 120.38564 | 2283 ft | 247 kts | 213° |
| 2026-04-16 12:51 | 22.52942 | 120.37440 | 3433 ft | 234 kts | 225° |
| 2026-04-16 12:51 | 22.51799 | 120.36202 | 4498 ft | 232 kts | 228° |
| 2026-04-16 12:51 | 22.50669 | 120.34939 | 5361 ft | 234 kts | 227° |
| 2026-04-16 12:52 | 22.49515 | 120.33693 | 6245 ft | 235 kts | 227° |
| 2026-04-16 12:52 | 22.48319 | 120.32452 | 6791 ft | 239 kts | 225° |
| 2026-04-16 12:52 | 22.47099 | 120.31232 | 6961 ft | 238 kts | 225° |
| 2026-04-16 12:52 | 22.45874 | 120.30035 | 7003 ft | 237 kts | 224° |
| 2026-04-16 12:53 | 22.44655 | 120.28864 | 7010 ft | 236 kts | 224° |
| 2026-04-16 12:53 | 22.43423 | 120.27692 | 7013 ft | 236 kts | 223° |
| 2026-04-16 12:53 | 22.42187 | 120.26521 | 7010 ft | 236 kts | 223° |
| 2026-04-16 12:53 | 22.40947 | 120.25351 | 7009 ft | 236 kts | 223° |
| 2026-04-16 12:54 | 22.39710 | 120.24182 | 7009 ft | 236 kts | 223° |
| 2026-04-16 12:54 | 22.38471 | 120.23013 | 7012 ft | 236 kts | 223° |
| 2026-04-16 12:54 | 22.36893 | 120.21522 | 7602 ft | 239 kts | 223° |
| 2026-04-16 12:54 | 22.34363 | 120.19141 | 9111 ft | 243 kts | 222° |
| 2026-04-16 12:55 | 22.31777 | 120.16712 | 10584 ft | 249 kts | 222° |
| 2026-04-16 12:55 | 22.29505 | 120.13962 | 12060 ft | 252 kts | 245° |
| 2026-04-16 12:55 | 22.28541 | 120.10004 | 12664 ft | 296 kts | 258° |
| 2026-04-16 12:55 | 22.27571 | 120.05330 | 13107 ft | 338 kts | 257° |
| 2026-04-16 12:56 | 22.26491 | 120.00291 | 14325 ft | 347 kts | 257° |
| 2026-04-16 12:56 | 22.25389 | 119.95179 | 15530 ft | 353 kts | 257° |
| 2026-04-16 12:56 | 22.24266 | 119.89960 | 16716 ft | 359 kts | 257° |
| 2026-04-16 12:56 | 22.23148 | 119.84722 | 17892 ft | 364 kts | 257° |
| 2026-04-16 12:57 | 22.21998 | 119.79340 | 18939 ft | 370 kts | 257° |
| 2026-04-16 12:57 | 22.20825 | 119.73895 | 19973 ft | 375 kts | 257° |
| 2026-04-16 12:57 | 22.19637 | 119.68386 | 21004 ft | 379 kts | 257° |
| 2026-04-16 12:57 | 22.18432 | 119.62804 | 21991 ft | 384 kts | 257° |
| 2026-04-16 12:58 | 22.17623 | 119.59071 | 22638 ft | 387 kts | 256° |
| 2026-04-16 12:58 | 22.16389 | 119.53375 | 23575 ft | 392 kts | 257° |
| 2026-04-16 12:58 | 22.16008 | 119.47454 | 24319 ft | 398 kts | 268° |
| 2026-04-16 12:58 | 22.15856 | 119.41446 | 25085 ft | 401 kts | 267° |
| 2026-04-16 12:59 | 22.15688 | 119.35398 | 25839 ft | 405 kts | 267° |
| 2026-04-16 12:59 | 22.15522 | 119.29285 | 26574 ft | 409 kts | 268° |
| 2026-04-16 12:59 | 22.15359 | 119.23189 | 27291 ft | 413 kts | 267° |
| 2026-04-16 13:00 | 22.14991 | 119.10661 | 28708 ft | 421 kts | 268° |
| 2026-04-16 13:00 | 22.15492 | 119.04323 | 29399 ft | 427 kts | 276° |
| 2026-04-16 13:00 | 22.16288 | 118.97943 | 30074 ft | 431 kts | 276° |
| 2026-04-16 13:00 | 22.17059 | 118.91513 | 30639 ft | 434 kts | 276° |
| 2026-04-16 13:01 | 22.17834 | 118.85030 | 31199 ft | 437 kts | 276° |
| 2026-04-16 13:01 | 22.18602 | 118.78562 | 31746 ft | 440 kts | 276° |
| 2026-04-16 13:01 | 22.19366 | 118.72045 | 31964 ft | 429 kts | 275° |
| 2026-04-16 13:01 | 22.20095 | 118.65837 | 31979 ft | 408 kts | 275° |
| 2026-04-16 13:02 | 22.20809 | 118.59770 | 31980 ft | 406 kts | 275° |
| 2026-04-16 13:02 | 22.22230 | 118.47651 | 31978 ft | 406 kts | 275° |
| 2026-04-16 13:03 | 22.23638 | 118.35572 | 31983 ft | 405 kts | 275° |
| 2026-04-16 13:03 | 22.25040 | 118.23543 | 31983 ft | 405 kts | 275° |
| 2026-04-16 13:04 | 22.26422 | 118.11475 | 31981 ft | 405 kts | 275° |
| 2026-04-16 13:04 | 22.27734 | 117.99405 | 31980 ft | 404 kts | 275° |
| 2026-04-16 13:05 | 22.29104 | 117.87406 | 31978 ft | 404 kts | 275° |
| 2026-04-16 13:05 | 22.30484 | 117.75358 | 31980 ft | 403 kts | 275° |
| 2026-04-16 13:06 | 22.31842 | 117.63316 | 31974 ft | 402 kts | 275° |
| 2026-04-16 13:06 | 22.33185 | 117.51383 | 31973 ft | 403 kts | 275° |
| 2026-04-16 13:07 | 22.35575 | 117.39499 | 31976 ft | 404 kts | 281° |
| 2026-04-16 13:07 | 22.38075 | 117.27664 | 31973 ft | 403 kts | 281° |
| 2026-04-16 13:08 | 22.40555 | 117.15907 | 31973 ft | 403 kts | 280° |
| 2026-04-16 13:08 | 22.43038 | 117.04101 | 31977 ft | 403 kts | 280° |
| 2026-04-16 13:09 | 22.45519 | 116.92266 | 31976 ft | 403 kts | 280° |
| 2026-04-16 13:09 | 22.47981 | 116.80459 | 31973 ft | 402 kts | 280° |
| 2026-04-16 13:10 | 22.50412 | 116.68703 | 31962 ft | 400 kts | 277° |
| 2026-04-16 13:10 | 22.50460 | 116.62728 | 31963 ft | 397 kts | 265° |
| 2026-04-16 13:10 | 22.50108 | 116.56772 | 31958 ft | 397 kts | 265° |
| 2026-04-16 13:11 | 22.49466 | 116.44928 | 31960 ft | 397 kts | 265° |
| 2026-04-16 13:11 | 22.48796 | 116.32989 | 31954 ft | 397 kts | 265° |
| 2026-04-16 13:12 | 22.48123 | 116.21060 | 31952 ft | 397 kts | 265° |
| 2026-04-16 13:12 | 22.47426 | 116.09151 | 31944 ft | 396 kts | 265° |
| 2026-04-16 13:13 | 22.46735 | 115.97325 | 31944 ft | 396 kts | 265° |
| 2026-04-16 13:13 | 22.46021 | 115.85443 | 31939 ft | 395 kts | 265° |
| 2026-04-16 13:14 | 22.45320 | 115.73570 | 31937 ft | 395 kts | 265° |
| 2026-04-16 13:14 | 22.44589 | 115.61701 | 31944 ft | 395 kts | 265° |
| 2026-04-16 13:15 | 22.43867 | 115.49894 | 31938 ft | 395 kts | 265° |
| 2026-04-16 13:15 | 22.43142 | 115.38037 | 31940 ft | 395 kts | 265° |
| 2026-04-16 13:16 | 22.42387 | 115.26183 | 31935 ft | 394 kts | 265° |
| 2026-04-16 13:16 | 22.41627 | 115.14352 | 31933 ft | 394 kts | 265° |
| 2026-04-16 13:17 | 22.40876 | 115.02587 | 31938 ft | 394 kts | 265° |
| 2026-04-16 13:17 | 22.40103 | 114.90715 | 31935 ft | 394 kts | 265° |
| 2026-04-16 13:18 | 22.39314 | 114.78874 | 31943 ft | 407 kts | 265° |
| 2026-04-16 13:18 | 22.38904 | 114.72630 | 31941 ft | 423 kts | 265° |
| 2026-04-16 13:18 | 22.38484 | 114.66260 | 31741 ft | 422 kts | 265° |
| 2026-04-16 13:18 | 22.38056 | 114.59925 | 30390 ft | 424 kts | 265° |
| 2026-04-16 13:19 | 22.37625 | 114.53626 | 29269 ft | 415 kts | 265° |
| 2026-04-16 13:19 | 22.37208 | 114.47462 | 28034 ft | 407 kts | 265° |
| 2026-04-16 13:19 | 22.36802 | 114.41489 | 26836 ft | 400 kts | 265° |
| 2026-04-16 13:19 | 22.36394 | 114.35538 | 25663 ft | 394 kts | 265° |
| 2026-04-16 13:20 | 22.35978 | 114.29578 | 25203 ft | 399 kts | 265° |
| 2026-04-16 13:20 | 22.35563 | 114.23666 | 24056 ft | 389 kts | 265° |
| 2026-04-16 13:20 | 22.35149 | 114.17871 | 22837 ft | 384 kts | 264° |
| 2026-04-16 13:20 | 22.34742 | 114.12157 | 21723 ft | 378 kts | 265° |
| 2026-04-16 13:21 | 22.34348 | 114.06540 | 20596 ft | 372 kts | 265° |
| 2026-04-16 13:21 | 22.33960 | 114.00997 | 19436 ft | 366 kts | 265° |
| 2026-04-16 13:21 | 22.32900 | 113.95770 | 18258 ft | 360 kts | 244° |
| 2026-04-16 13:21 | 22.29661 | 113.91749 | 17062 ft | 358 kts | 220° |
| 2026-04-16 13:22 | 22.25766 | 113.88426 | 15819 ft | 354 kts | 220° |
| 2026-04-16 13:22 | 22.22012 | 113.85169 | 15035 ft | 338 kts | 220° |
| 2026-04-16 13:22 | 22.18401 | 113.82035 | 14280 ft | 328 kts | 220° |
| 2026-04-16 13:22 | 22.14832 | 113.78958 | 13518 ft | 326 kts | 220° |
| 2026-04-16 13:23 | 22.11309 | 113.75929 | 12943 ft | 314 kts | 220° |
| 2026-04-16 13:23 | 22.07961 | 113.73045 | 12286 ft | 306 kts | 220° |
| 2026-04-16 13:23 | 22.04650 | 113.70188 | 11452 ft | 304 kts | 220° |
| 2026-04-16 13:23 | 22.02348 | 113.66509 | 10600 ft | 300 kts | 255° |
| 2026-04-16 13:24 | 22.02706 | 113.62289 | 10128 ft | 288 kts | 295° |
| 2026-04-16 13:24 | 22.03848 | 113.60574 | 9885 ft | 279 kts | 315° |
| 2026-04-16 13:24 | 22.05369 | 113.59266 | 9251 ft | 281 kts | 323° |
| 2026-04-16 13:24 | 22.06980 | 113.58061 | 8661 ft | 282 kts | 324° |
| 2026-04-16 13:25 | 22.08614 | 113.56896 | 8093 ft | 281 kts | 325° |
| 2026-04-16 13:25 | 22.10245 | 113.55741 | 7533 ft | 279 kts | 324° |
| 2026-04-16 13:25 | 22.11855 | 113.54591 | 6993 ft | 277 kts | 324° |
| 2026-04-16 13:25 | 22.13443 | 113.53414 | 6537 ft | 277 kts | 323° |
| 2026-04-16 13:26 | 22.15175 | 113.52530 | 6224 ft | 278 kts | 345° |
| 2026-04-16 13:26 | 22.17102 | 113.52451 | 5909 ft | 279 kts | 8° |
| 2026-04-16 13:26 | 22.19008 | 113.52820 | 5564 ft | 279 kts | 9° |
| 2026-04-16 13:26 | 22.20886 | 113.53193 | 5262 ft | 277 kts | 9° |
| 2026-04-16 13:27 | 22.22772 | 113.53571 | 5035 ft | 273 kts | 9° |
| 2026-04-16 13:27 | 22.24621 | 113.53944 | 4820 ft | 267 kts | 9° |
| 2026-04-16 13:27 | 22.26460 | 113.54310 | 4581 ft | 263 kts | 9° |
| 2026-04-16 13:27 | 22.28216 | 113.54654 | 4370 ft | 257 kts | 9° |
| 2026-04-16 13:28 | 22.29939 | 113.54992 | 4221 ft | 246 kts | 9° |
| 2026-04-16 13:28 | 22.31585 | 113.55313 | 4074 ft | 235 kts | 9° |
| 2026-04-16 13:28 | 22.33160 | 113.55622 | 3916 ft | 224 kts | 9° |
| 2026-04-16 13:28 | 22.34646 | 113.55987 | 3753 ft | 215 kts | 23° |
| 2026-04-16 13:29 | 22.35802 | 113.56941 | 3571 ft | 207 kts | 54° |
| 2026-04-16 13:29 | 22.36339 | 113.58306 | 3415 ft | 193 kts | 83° |
| 2026-04-16 13:29 | 22.36337 | 113.59710 | 3199 ft | 183 kts | 100° |
| 2026-04-16 13:29 | 22.35918 | 113.60953 | 2998 ft | 172 kts | 125° |
| 2026-04-16 13:30 | 22.35118 | 113.61858 | 2789 ft | 163 kts | 148° |
| 2026-04-16 13:30 | 22.34115 | 113.62337 | 2612 ft | 154 kts | 166° |
| 2026-04-16 13:30 | 22.33125 | 113.62644 | 2524 ft | 144 kts | 165° |
| 2026-04-16 13:30 | 22.32178 | 113.62945 | 2517 ft | 141 kts | 165° |
| 2026-04-16 13:31 | 22.31241 | 113.63242 | 2523 ft | 140 kts | 165° |
| 2026-04-16 13:31 | 22.30341 | 113.63530 | 2513 ft | 131 kts | 165° |
| 2026-04-16 13:31 | 22.29468 | 113.63769 | 2506 ft | 129 kts | 175° |
| 2026-04-16 13:31 | 22.28579 | 113.63767 | 2431 ft | 128 kts | 189° |
| 2026-04-16 13:32 | 22.27774 | 113.63415 | 2264 ft | 125 kts | 219° |
| 2026-04-16 13:32 | 22.27049 | 113.62887 | 2121 ft | 126 kts | 211° |
| 2026-04-16 13:32 | 22.26316 | 113.62382 | 1960 ft | 124 kts | 213° |
| 2026-04-16 13:32 | 22.25596 | 113.61868 | 1815 ft | 123 kts | 213° |
| 2026-04-16 13:33 | 22.24886 | 113.61351 | 1685 ft | 123 kts | 214° |
| 2026-04-16 13:33 | 22.24179 | 113.60832 | 1553 ft | 123 kts | 214° |
| 2026-04-16 13:33 | 22.23475 | 113.60311 | 1423 ft | 123 kts | 214° |
| 2026-04-16 13:33 | 22.22775 | 113.59792 | 1294 ft | 122 kts | 213° |
| 2026-04-16 13:34 | 22.22079 | 113.59274 | 1165 ft | 121 kts | 213° |
| 2026-04-16 13:34 | 22.21385 | 113.58757 | 1031 ft | 121 kts | 214° |
| 2026-04-16 13:34 | 22.20690 | 113.58246 | 877 ft | 121 kts | 213° |
| 2026-04-16 13:34 | 22.19945 | 113.57859 | 757 ft | 121 kts | 195° |
| 2026-04-16 13:35 | 22.19101 | 113.57777 | 623 ft | 122 kts | 181° |
| 2026-04-16 13:35 | 22.18252 | 113.57939 | 477 ft | 124 kts | 165° |
| 2026-04-16 13:35 | 22.17450 | 113.58235 | 319 ft | 123 kts | 163° |
| 2026-04-16 13:35 | 22.16626 | 113.58533 | 168 ft | 123 kts | 164° |
| 2026-04-16 13:36 | 22.15825 | 113.58820 | 41 ft | 119 kts | 163° |
| 2026-04-16 13:36 | 22.15150 | 113.59066 | 30 ft | 81 kts | 161° |
| 2026-04-16 13:36 | 22.14765 | 113.59206 | 29 ft | 42 kts | 161° |
| 2026-04-16 13:36 | 22.14620 | 113.59247 | 29 ft | 13 kts | 200° |
| 2026-04-16 13:37 | 22.14578 | 113.59149 | 29 ft | 17 kts | 252° |
| 2026-04-16 13:37 | 22.14646 | 113.59067 | 29 ft | 18 kts | 341° |
| 2026-04-16 13:37 | 22.14753 | 113.58997 | 29 ft | 18 kts | 304° |
| 2026-04-16 13:37 | 22.14831 | 113.58874 | 29 ft | 21 kts | 304° |
| 2026-04-16 13:38 | 22.14919 | 113.58733 | 29 ft | 24 kts | 304° |
| 2026-04-16 13:38 | 22.15015 | 113.58573 | 29 ft | 27 kts | 302° |
| 2026-04-16 13:38 | 22.15124 | 113.58396 | 29 ft | 30 kts | 304° |
| 2026-04-16 13:38 | 22.15245 | 113.58204 | 29 ft | 32 kts | 303° |
| 2026-04-16 13:39 | 22.15366 | 113.58005 | 29 ft | 32 kts | 303° |
| 2026-04-16 13:39 | 22.15494 | 113.57798 | 29 ft | 31 kts | 304° |
| 2026-04-16 13:39 | 22.15586 | 113.57651 | 29 ft | 20 kts | 302° |
| 2026-04-16 13:39 | 22.15669 | 113.57615 | 29 ft | 16 kts | 32° |
| 2026-04-16 13:40 | 22.15777 | 113.57677 | 29 ft | 19 kts | 19° |
| 2026-04-16 13:40 | 22.15913 | 113.57717 | 29 ft | 22 kts | 15° |
| 2026-04-16 13:40 | 22.16053 | 113.57757 | 29 ft | 20 kts | 14° |
| 2026-04-16 13:40 | 22.16126 | 113.57762 | 29 ft | 7 kts | 317° |
| 2026-04-16 13:41 | 22.16143 | 113.57702 | 29 ft | 8 kts | 285° |
| 2026-04-16 13:41 | 22.16147 | 113.57683 | 29 ft | 0 kts | 285° |